sensor_id;sensor_type;location;lat;lon;timestamp;temperature;humidity
75621;DHT22;64574;48.506;-2.750;2023-08-21T00:01:20;19.50;76.10
75621;DHT22;64574;48.506;-2.750;2023-08-21T00:03:46;19.50;76.40
75621;DHT22;64574;48.506;-2.750;2023-08-21T00:06:12;19.50;76.40
75621;DHT22;64574;48.506;-2.750;2023-08-21T00:08:37;19.50;76.70
75621;DHT22;64574;48.506;-2.750;2023-08-21T00:11:03;19.50;76.40
75621;DHT22;64574;48.506;-2.750;2023-08-21T00:13:28;19.50;76.40
75621;DHT22;64574;48.506;-2.750;2023-08-21T00:15:54;19.40;76.80
75621;DHT22;64574;48.506;-2.750;2023-08-21T00:18:21;19.40;77.00
75621;DHT22;64574;48.506;-2.750;2023-08-21T00:20:46;19.40;77.00
75621;DHT22;64574;48.506;-2.750;2023-08-21T00:23:12;19.50;76.70
75621;DHT22;64574;48.506;-2.750;2023-08-21T00:25:38;19.40;77.10
75621;DHT22;64574;48.506;-2.750;2023-08-21T00:28:03;19.40;76.90
75621;DHT22;64574;48.506;-2.750;2023-08-21T00:30:29;19.30;77.20
75621;DHT22;64574;48.506;-2.750;2023-08-21T00:32:55;19.30;77.10
75621;DHT22;64574;48.506;-2.750;2023-08-21T00:35:20;19.40;76.70
75621;DHT22;64574;48.506;-2.750;2023-08-21T00:37:46;19.40;77.00
75621;DHT22;64574;48.506;-2.750;2023-08-21T00:40:12;19.40;76.70
75621;DHT22;64574;48.506;-2.750;2023-08-21T00:42:38;19.30;77.10
75621;DHT22;64574;48.506;-2.750;2023-08-21T00:45:04;19.40;77.10
75621;DHT22;64574;48.506;-2.750;2023-08-21T00:47:34;19.30;76.70
75621;DHT22;64574;48.506;-2.750;2023-08-21T00:50:00;19.40;76.80
75621;DHT22;64574;48.506;-2.750;2023-08-21T00:52:26;19.50;76.60
75621;DHT22;64574;48.506;-2.750;2023-08-21T00:54:51;19.50;76.20
75621;DHT22;64574;48.506;-2.750;2023-08-21T00:57:17;19.60;75.70
75621;DHT22;64574;48.506;-2.750;2023-08-21T00:59:43;19.50;75.80
75621;DHT22;64574;48.506;-2.750;2023-08-21T01:02:09;19.50;75.90
75621;DHT22;64574;48.506;-2.750;2023-08-21T01:04:35;19.40;76.40
75621;DHT22;64574;48.506;-2.750;2023-08-21T01:07:00;19.50;76.10
75621;DHT22;64574;48.506;-2.750;2023-08-21T01:12:12;19.50;75.70
75621;DHT22;64574;48.506;-2.750;2023-08-21T01:15:05;19.50;75.70
75621;DHT22;64574;48.506;-2.750;2023-08-21T01:17:34;19.50;75.40
75621;DHT22;64574;48.506;-2.750;2023-08-21T01:20:02;19.40;75.40
75621;DHT22;64574;48.506;-2.750;2023-08-21T01:22:35;19.40;75.70
75621;DHT22;64574;48.506;-2.750;2023-08-21T01:25:00;19.40;75.40
75621;DHT22;64574;48.506;-2.750;2023-08-21T01:27:26;19.50;74.40
75621;DHT22;64574;48.506;-2.750;2023-08-21T01:29:52;19.40;74.70
75621;DHT22;64574;48.506;-2.750;2023-08-21T01:32:29;19.40;74.80
75621;DHT22;64574;48.506;-2.750;2023-08-21T01:34:56;19.40;74.80
75621;DHT22;64574;48.506;-2.750;2023-08-21T01:37:24;19.40;74.80
75621;DHT22;64574;48.506;-2.750;2023-08-21T01:39:49;19.40;74.20
75621;DHT22;64574;48.506;-2.750;2023-08-21T01:42:15;19.40;74.40
75621;DHT22;64574;48.506;-2.750;2023-08-21T01:44:41;19.20;74.80
75621;DHT22;64574;48.506;-2.750;2023-08-21T01:47:07;19.30;74.50
75621;DHT22;64574;48.506;-2.750;2023-08-21T01:49:32;19.10;74.90
75621;DHT22;64574;48.506;-2.750;2023-08-21T01:51:58;19.10;75.10
75621;DHT22;64574;48.506;-2.750;2023-08-21T01:54:24;19.30;74.70
75621;DHT22;64574;48.506;-2.750;2023-08-21T01:56:49;19.40;74.60
75621;DHT22;64574;48.506;-2.750;2023-08-21T01:59:16;19.40;74.40
75621;DHT22;64574;48.506;-2.750;2023-08-21T02:01:42;19.20;75.00
75621;DHT22;64574;48.506;-2.750;2023-08-21T02:04:07;19.10;75.70
75621;DHT22;64574;48.506;-2.750;2023-08-21T02:06:33;19.20;75.30
75621;DHT22;64574;48.506;-2.750;2023-08-21T02:08:58;19.20;75.50
75621;DHT22;64574;48.506;-2.750;2023-08-21T02:11:24;19.30;75.00
75621;DHT22;64574;48.506;-2.750;2023-08-21T02:13:50;19.30;75.10
75621;DHT22;64574;48.506;-2.750;2023-08-21T02:16:15;19.30;75.00
75621;DHT22;64574;48.506;-2.750;2023-08-21T02:18:41;19.10;75.80
75621;DHT22;64574;48.506;-2.750;2023-08-21T02:21:06;19.00;75.90
75621;DHT22;64574;48.506;-2.750;2023-08-21T02:23:32;19.00;76.10
75621;DHT22;64574;48.506;-2.750;2023-08-21T02:25:58;19.10;75.90
75621;DHT22;64574;48.506;-2.750;2023-08-21T02:28:24;19.10;75.70
75621;DHT22;64574;48.506;-2.750;2023-08-21T02:30:49;19.00;75.80
75621;DHT22;64574;48.506;-2.750;2023-08-21T02:33:15;19.10;76.20
75621;DHT22;64574;48.506;-2.750;2023-08-21T02:35:41;19.00;76.00
75621;DHT22;64574;48.506;-2.750;2023-08-21T02:38:06;19.10;75.80
75621;DHT22;64574;48.506;-2.750;2023-08-21T02:40:32;19.10;75.90
75621;DHT22;64574;48.506;-2.750;2023-08-21T02:42:58;19.00;75.90
75621;DHT22;64574;48.506;-2.750;2023-08-21T02:45:23;19.00;75.90
75621;DHT22;64574;48.506;-2.750;2023-08-21T02:47:49;19.10;75.80
75621;DHT22;64574;48.506;-2.750;2023-08-21T02:50:15;19.00;75.80
75621;DHT22;64574;48.506;-2.750;2023-08-21T02:52:40;19.10;75.50
75621;DHT22;64574;48.506;-2.750;2023-08-21T02:55:06;18.90;75.80
75621;DHT22;64574;48.506;-2.750;2023-08-21T02:57:31;19.00;76.00
75621;DHT22;64574;48.506;-2.750;2023-08-21T02:59:57;18.70;76.50
75621;DHT22;64574;48.506;-2.750;2023-08-21T03:02:23;18.70;76.90
75621;DHT22;64574;48.506;-2.750;2023-08-21T03:04:49;18.90;76.10
75621;DHT22;64574;48.506;-2.750;2023-08-21T03:07:15;18.70;76.50
75621;DHT22;64574;48.506;-2.750;2023-08-21T03:09:41;18.70;76.60
75621;DHT22;64574;48.506;-2.750;2023-08-21T03:12:08;18.70;76.50
75621;DHT22;64574;48.506;-2.750;2023-08-21T03:14:34;18.90;75.90
75621;DHT22;64574;48.506;-2.750;2023-08-21T03:16:59;18.90;75.40
75621;DHT22;64574;48.506;-2.750;2023-08-21T03:19:25;18.80;75.50
75621;DHT22;64574;48.506;-2.750;2023-08-21T03:21:51;18.80;76.00
75621;DHT22;64574;48.506;-2.750;2023-08-21T03:24:17;18.70;76.30
75621;DHT22;64574;48.506;-2.750;2023-08-21T03:26:43;18.80;76.20
75621;DHT22;64574;48.506;-2.750;2023-08-21T03:29:09;18.80;76.60
75621;DHT22;64574;48.506;-2.750;2023-08-21T03:31:35;19.00;75.90
75621;DHT22;64574;48.506;-2.750;2023-08-21T03:34:00;19.10;75.20
75621;DHT22;64574;48.506;-2.750;2023-08-21T03:36:26;19.00;75.80
75621;DHT22;64574;48.506;-2.750;2023-08-21T03:39:01;19.00;75.70
75621;DHT22;64574;48.506;-2.750;2023-08-21T03:41:27;19.10;75.60
75621;DHT22;64574;48.506;-2.750;2023-08-21T03:43:53;19.20;75.00
75621;DHT22;64574;48.506;-2.750;2023-08-21T03:46:19;19.20;74.70
75621;DHT22;64574;48.506;-2.750;2023-08-21T03:48:44;19.10;75.20
75621;DHT22;64574;48.506;-2.750;2023-08-21T03:51:10;19.00;75.30
75621;DHT22;64574;48.506;-2.750;2023-08-21T03:53:36;19.00;75.50
75621;DHT22;64574;48.506;-2.750;2023-08-21T03:56:02;19.10;75.10
75621;DHT22;64574;48.506;-2.750;2023-08-21T03:58:27;19.00;75.40
75621;DHT22;64574;48.506;-2.750;2023-08-21T04:00:53;19.00;75.20
75621;DHT22;64574;48.506;-2.750;2023-08-21T04:03:20;19.20;74.70
75621;DHT22;64574;48.506;-2.750;2023-08-21T04:05:45;19.20;74.50
75621;DHT22;64574;48.506;-2.750;2023-08-21T04:08:11;19.00;75.00
75621;DHT22;64574;48.506;-2.750;2023-08-21T04:10:37;19.00;75.30
75621;DHT22;64574;48.506;-2.750;2023-08-21T04:13:04;19.00;74.80
75621;DHT22;64574;48.506;-2.750;2023-08-21T04:15:30;18.80;75.70
75621;DHT22;64574;48.506;-2.750;2023-08-21T04:17:55;18.80;75.70
75621;DHT22;64574;48.506;-2.750;2023-08-21T04:20:21;18.80;75.70
75621;DHT22;64574;48.506;-2.750;2023-08-21T04:22:47;18.80;75.80
75621;DHT22;64574;48.506;-2.750;2023-08-21T04:25:13;18.80;75.60
75621;DHT22;64574;48.506;-2.750;2023-08-21T04:27:39;18.90;75.50
75621;DHT22;64574;48.506;-2.750;2023-08-21T04:30:05;18.90;75.50
75621;DHT22;64574;48.506;-2.750;2023-08-21T04:32:31;18.80;76.00
75621;DHT22;64574;48.506;-2.750;2023-08-21T04:34:56;19.00;75.40
75621;DHT22;64574;48.506;-2.750;2023-08-21T04:37:23;19.00;75.20
75621;DHT22;64574;48.506;-2.750;2023-08-21T04:39:55;18.90;75.30
75621;DHT22;64574;48.506;-2.750;2023-08-21T04:42:21;19.00;75.10
75621;DHT22;64574;48.506;-2.750;2023-08-21T04:44:47;18.90;75.50
75621;DHT22;64574;48.506;-2.750;2023-08-21T04:47:23;18.80;75.70
75621;DHT22;64574;48.506;-2.750;2023-08-21T04:49:50;18.80;75.90
75621;DHT22;64574;48.506;-2.750;2023-08-21T04:52:15;18.80;75.90
75621;DHT22;64574;48.506;-2.750;2023-08-21T04:54:42;18.50;77.00
75621;DHT22;64574;48.506;-2.750;2023-08-21T04:57:07;18.80;76.40
75621;DHT22;64574;48.506;-2.750;2023-08-21T04:59:34;18.90;75.60
75621;DHT22;64574;48.506;-2.750;2023-08-21T05:02:00;18.80;75.90
75621;DHT22;64574;48.506;-2.750;2023-08-21T05:04:25;19.00;75.50
75621;DHT22;64574;48.506;-2.750;2023-08-21T05:06:51;19.00;75.20
75621;DHT22;64574;48.506;-2.750;2023-08-21T05:09:17;19.00;75.20
75621;DHT22;64574;48.506;-2.750;2023-08-21T05:11:42;18.90;75.80
75621;DHT22;64574;48.506;-2.750;2023-08-21T05:14:08;18.90;75.60
75621;DHT22;64574;48.506;-2.750;2023-08-21T05:16:34;19.00;75.50
75621;DHT22;64574;48.506;-2.750;2023-08-21T05:19:00;19.10;75.40
75621;DHT22;64574;48.506;-2.750;2023-08-21T05:21:26;19.00;75.50
75621;DHT22;64574;48.506;-2.750;2023-08-21T05:23:52;19.10;75.60
75621;DHT22;64574;48.506;-2.750;2023-08-21T05:26:18;19.20;74.90
75621;DHT22;64574;48.506;-2.750;2023-08-21T05:28:44;19.10;75.00
75621;DHT22;64574;48.506;-2.750;2023-08-21T05:31:10;19.10;75.20
75621;DHT22;64574;48.506;-2.750;2023-08-21T05:33:35;19.10;75.30
75621;DHT22;64574;48.506;-2.750;2023-08-21T05:36:01;19.10;75.50
75621;DHT22;64574;48.506;-2.750;2023-08-21T05:38:26;19.10;75.20
75621;DHT22;64574;48.506;-2.750;2023-08-21T05:40:52;19.10;75.70
75621;DHT22;64574;48.506;-2.750;2023-08-21T05:43:18;19.00;75.70
75621;DHT22;64574;48.506;-2.750;2023-08-21T05:45:44;19.00;75.80
75621;DHT22;64574;48.506;-2.750;2023-08-21T05:48:09;19.00;75.60
75621;DHT22;64574;48.506;-2.750;2023-08-21T05:50:35;19.10;75.60
75621;DHT22;64574;48.506;-2.750;2023-08-21T05:53:06;19.10;75.50
75621;DHT22;64574;48.506;-2.750;2023-08-21T05:55:32;19.10;75.50
75621;DHT22;64574;48.506;-2.750;2023-08-21T05:57:58;19.10;75.50
75621;DHT22;64574;48.506;-2.750;2023-08-21T06:00:23;19.20;75.40
75621;DHT22;64574;48.506;-2.750;2023-08-21T06:02:49;19.20;75.10
75621;DHT22;64574;48.506;-2.750;2023-08-21T06:05:15;19.00;75.60
75621;DHT22;64574;48.506;-2.750;2023-08-21T06:07:41;19.10;75.60
75621;DHT22;64574;48.506;-2.750;2023-08-21T06:10:10;19.10;75.50
75621;DHT22;64574;48.506;-2.750;2023-08-21T06:12:41;19.00;75.70
75621;DHT22;64574;48.506;-2.750;2023-08-21T06:15:07;19.10;75.60
75621;DHT22;64574;48.506;-2.750;2023-08-21T06:17:36;19.10;75.40
75621;DHT22;64574;48.506;-2.750;2023-08-21T06:20:02;19.10;75.40
75621;DHT22;64574;48.506;-2.750;2023-08-21T06:22:31;19.20;75.30
75621;DHT22;64574;48.506;-2.750;2023-08-21T06:24:57;19.20;75.10
75621;DHT22;64574;48.506;-2.750;2023-08-21T06:27:22;19.20;75.30
75621;DHT22;64574;48.506;-2.750;2023-08-21T06:29:48;19.20;75.40
75621;DHT22;64574;48.506;-2.750;2023-08-21T06:32:14;19.10;75.50
75621;DHT22;64574;48.506;-2.750;2023-08-21T06:34:39;19.10;75.80
75621;DHT22;64574;48.506;-2.750;2023-08-21T06:37:05;19.20;75.50
75621;DHT22;64574;48.506;-2.750;2023-08-21T06:39:31;19.30;75.20
75621;DHT22;64574;48.506;-2.750;2023-08-21T06:41:56;19.40;74.80
75621;DHT22;64574;48.506;-2.750;2023-08-21T06:44:22;19.30;74.90
75621;DHT22;64574;48.506;-2.750;2023-08-21T06:46:48;19.30;75.20
75621;DHT22;64574;48.506;-2.750;2023-08-21T06:49:13;19.30;74.80
75621;DHT22;64574;48.506;-2.750;2023-08-21T06:51:39;19.30;74.60
75621;DHT22;64574;48.506;-2.750;2023-08-21T06:54:05;19.30;74.80
75621;DHT22;64574;48.506;-2.750;2023-08-21T06:56:30;19.30;75.10
75621;DHT22;64574;48.506;-2.750;2023-08-21T06:58:56;19.40;74.70
75621;DHT22;64574;48.506;-2.750;2023-08-21T07:01:21;19.50;74.10
75621;DHT22;64574;48.506;-2.750;2023-08-21T07:03:47;19.50;73.80
75621;DHT22;64574;48.506;-2.750;2023-08-21T07:06:13;19.40;73.70
75621;DHT22;64574;48.506;-2.750;2023-08-21T07:08:38;19.40;73.70
75621;DHT22;64574;48.506;-2.750;2023-08-21T07:11:06;19.40;73.40
75621;DHT22;64574;48.506;-2.750;2023-08-21T07:13:34;19.50;73.10
75621;DHT22;64574;48.506;-2.750;2023-08-21T07:15:59;19.40;73.10
75621;DHT22;64574;48.506;-2.750;2023-08-21T07:18:29;19.40;73.00
75621;DHT22;64574;48.506;-2.750;2023-08-21T07:20:55;19.40;72.80
75621;DHT22;64574;48.506;-2.750;2023-08-21T07:23:20;19.10;73.50
75621;DHT22;64574;48.506;-2.750;2023-08-21T07:25:46;19.20;73.50
75621;DHT22;64574;48.506;-2.750;2023-08-21T07:28:12;19.40;72.70
75621;DHT22;64574;48.506;-2.750;2023-08-21T07:30:38;19.30;73.10
75621;DHT22;64574;48.506;-2.750;2023-08-21T07:33:04;19.50;72.90
75621;DHT22;64574;48.506;-2.750;2023-08-21T07:35:30;19.60;72.60
75621;DHT22;64574;48.506;-2.750;2023-08-21T07:37:57;19.70;72.60
75621;DHT22;64574;48.506;-2.750;2023-08-21T07:40:23;19.70;72.30
75621;DHT22;64574;48.506;-2.750;2023-08-21T07:42:48;19.70;72.30
75621;DHT22;64574;48.506;-2.750;2023-08-21T07:45:14;19.70;72.40
75621;DHT22;64574;48.506;-2.750;2023-08-21T07:47:40;19.50;72.60
75621;DHT22;64574;48.506;-2.750;2023-08-21T07:50:06;19.70;72.70
75621;DHT22;64574;48.506;-2.750;2023-08-21T07:52:33;19.70;72.60
75621;DHT22;64574;48.506;-2.750;2023-08-21T07:54:59;19.70;72.50
75621;DHT22;64574;48.506;-2.750;2023-08-21T07:57:27;19.70;72.10
75621;DHT22;64574;48.506;-2.750;2023-08-21T07:59:53;19.70;72.50
75621;DHT22;64574;48.506;-2.750;2023-08-21T08:02:19;19.70;72.60
75621;DHT22;64574;48.506;-2.750;2023-08-21T08:04:44;19.80;72.10
75621;DHT22;64574;48.506;-2.750;2023-08-21T08:07:10;19.70;71.90
75621;DHT22;64574;48.506;-2.750;2023-08-21T08:09:35;19.90;71.80
75621;DHT22;64574;48.506;-2.750;2023-08-21T08:12:01;20.00;71.20
75621;DHT22;64574;48.506;-2.750;2023-08-21T08:14:27;19.90;71.40
75621;DHT22;64574;48.506;-2.750;2023-08-21T08:16:53;19.90;71.50
75621;DHT22;64574;48.506;-2.750;2023-08-21T08:19:18;19.90;71.40
75621;DHT22;64574;48.506;-2.750;2023-08-21T08:21:44;19.90;71.80
75621;DHT22;64574;48.506;-2.750;2023-08-21T08:24:10;20.00;71.80
75621;DHT22;64574;48.506;-2.750;2023-08-21T08:26:35;20.00;71.50
75621;DHT22;64574;48.506;-2.750;2023-08-21T08:29:01;20.00;71.50
75621;DHT22;64574;48.506;-2.750;2023-08-21T08:31:26;20.10;71.20
75621;DHT22;64574;48.506;-2.750;2023-08-21T08:33:54;20.10;71.20
75621;DHT22;64574;48.506;-2.750;2023-08-21T08:36:19;20.30;70.90
75621;DHT22;64574;48.506;-2.750;2023-08-21T08:38:45;20.30;70.90
75621;DHT22;64574;48.506;-2.750;2023-08-21T08:41:33;20.30;70.80
75621;DHT22;64574;48.506;-2.750;2023-08-21T08:44:02;20.40;70.70
75621;DHT22;64574;48.506;-2.750;2023-08-21T08:46:29;20.50;70.10
75621;DHT22;64574;48.506;-2.750;2023-08-21T08:48:55;20.30;70.00
75621;DHT22;64574;48.506;-2.750;2023-08-21T08:51:22;20.40;70.10
75621;DHT22;64574;48.506;-2.750;2023-08-21T08:53:48;20.60;69.50
75621;DHT22;64574;48.506;-2.750;2023-08-21T08:56:13;20.60;69.10
75621;DHT22;64574;48.506;-2.750;2023-08-21T08:58:39;20.40;69.00
75621;DHT22;64574;48.506;-2.750;2023-08-21T09:01:08;20.20;69.60
75621;DHT22;64574;48.506;-2.750;2023-08-21T09:03:36;20.00;69.80
75621;DHT22;64574;48.506;-2.750;2023-08-21T09:06:03;19.90;70.30
75621;DHT22;64574;48.506;-2.750;2023-08-21T09:08:29;20.00;70.50
75621;DHT22;64574;48.506;-2.750;2023-08-21T09:10:55;20.00;70.20
75621;DHT22;64574;48.506;-2.750;2023-08-21T09:13:20;20.00;70.30
75621;DHT22;64574;48.506;-2.750;2023-08-21T09:15:48;20.10;70.20
75621;DHT22;64574;48.506;-2.750;2023-08-21T09:18:15;20.30;69.80
75621;DHT22;64574;48.506;-2.750;2023-08-21T09:20:41;20.00;69.70
75621;DHT22;64574;48.506;-2.750;2023-08-21T09:23:08;19.90;70.40
75621;DHT22;64574;48.506;-2.750;2023-08-21T09:25:40;20.00;70.50
75621;DHT22;64574;48.506;-2.750;2023-08-21T09:28:07;20.00;70.40
75621;DHT22;64574;48.506;-2.750;2023-08-21T09:30:46;19.80;70.90
75621;DHT22;64574;48.506;-2.750;2023-08-21T09:33:12;20.00;70.70
75621;DHT22;64574;48.506;-2.750;2023-08-21T09:35:38;20.00;70.10
75621;DHT22;64574;48.506;-2.750;2023-08-21T09:38:05;20.00;69.70
75621;DHT22;64574;48.506;-2.750;2023-08-21T09:40:32;20.00;69.80
75621;DHT22;64574;48.506;-2.750;2023-08-21T09:42:58;20.00;70.00
75621;DHT22;64574;48.506;-2.750;2023-08-21T09:45:25;20.10;69.70
75621;DHT22;64574;48.506;-2.750;2023-08-21T09:47:52;20.10;70.10
75621;DHT22;64574;48.506;-2.750;2023-08-21T09:50:18;20.20;69.90
75621;DHT22;64574;48.506;-2.750;2023-08-21T09:52:45;20.30;69.20
75621;DHT22;64574;48.506;-2.750;2023-08-21T09:55:13;20.10;69.40
75621;DHT22;64574;48.506;-2.750;2023-08-21T09:57:39;20.20;69.30
75621;DHT22;64574;48.506;-2.750;2023-08-21T10:00:10;20.20;69.30
75621;DHT22;64574;48.506;-2.750;2023-08-21T10:02:50;20.30;69.60
75621;DHT22;64574;48.506;-2.750;2023-08-21T10:05:17;20.30;69.70
75621;DHT22;64574;48.506;-2.750;2023-08-21T10:07:45;20.30;69.70
75621;DHT22;64574;48.506;-2.750;2023-08-21T10:10:12;20.30;69.00
75621;DHT22;64574;48.506;-2.750;2023-08-21T10:12:38;20.10;69.40
75621;DHT22;64574;48.506;-2.750;2023-08-21T10:15:05;20.30;69.60
75621;DHT22;64574;48.506;-2.750;2023-08-21T10:17:32;20.40;69.60
75621;DHT22;64574;48.506;-2.750;2023-08-21T10:20:03;20.50;69.70
75621;DHT22;64574;48.506;-2.750;2023-08-21T10:22:44;20.40;69.80
75621;DHT22;64574;48.506;-2.750;2023-08-21T10:25:23;20.50;70.20
75621;DHT22;64574;48.506;-2.750;2023-08-21T10:27:55;20.30;70.20
75621;DHT22;64574;48.506;-2.750;2023-08-21T10:30:24;20.30;70.50
75621;DHT22;64574;48.506;-2.750;2023-08-21T10:32:56;20.30;70.70
75621;DHT22;64574;48.506;-2.750;2023-08-21T10:35:23;20.40;70.50
75621;DHT22;64574;48.506;-2.750;2023-08-21T10:38:10;20.40;70.10
75621;DHT22;64574;48.506;-2.750;2023-08-21T10:40:38;20.50;70.40
75621;DHT22;64574;48.506;-2.750;2023-08-21T10:43:04;20.50;70.20
75621;DHT22;64574;48.506;-2.750;2023-08-21T10:45:56;20.50;70.10
75621;DHT22;64574;48.506;-2.750;2023-08-21T10:48:22;20.50;70.00
75621;DHT22;64574;48.506;-2.750;2023-08-21T10:50:47;20.50;70.30
75621;DHT22;64574;48.506;-2.750;2023-08-21T10:53:13;20.50;70.40
75621;DHT22;64574;48.506;-2.750;2023-08-21T10:55:39;20.50;70.70
75621;DHT22;64574;48.506;-2.750;2023-08-21T10:58:05;20.50;71.00
75621;DHT22;64574;48.506;-2.750;2023-08-21T11:00:34;20.60;71.10
75621;DHT22;64574;48.506;-2.750;2023-08-21T11:03:00;20.50;71.10
75621;DHT22;64574;48.506;-2.750;2023-08-21T11:05:26;20.50;71.30
75621;DHT22;64574;48.506;-2.750;2023-08-21T11:07:51;20.50;71.00
75621;DHT22;64574;48.506;-2.750;2023-08-21T11:10:21;20.60;71.00
75621;DHT22;64574;48.506;-2.750;2023-08-21T11:12:57;20.60;71.00
75621;DHT22;64574;48.506;-2.750;2023-08-21T11:15:27;20.60;71.10
75621;DHT22;64574;48.506;-2.750;2023-08-21T11:17:58;20.50;70.90
75621;DHT22;64574;48.506;-2.750;2023-08-21T11:20:32;20.60;71.30
75621;DHT22;64574;48.506;-2.750;2023-08-21T11:23:02;20.60;71.10
75621;DHT22;64574;48.506;-2.750;2023-08-21T11:25:30;20.70;70.90
75621;DHT22;64574;48.506;-2.750;2023-08-21T11:27:56;20.70;71.20
75621;DHT22;64574;48.506;-2.750;2023-08-21T11:30:23;20.70;71.10
75621;DHT22;64574;48.506;-2.750;2023-08-21T11:33:04;20.80;71.10
75621;DHT22;64574;48.506;-2.750;2023-08-21T11:35:29;20.70;71.20
75621;DHT22;64574;48.506;-2.750;2023-08-21T11:37:55;20.70;71.20
75621;DHT22;64574;48.506;-2.750;2023-08-21T11:40:21;20.70;71.30
75621;DHT22;64574;48.506;-2.750;2023-08-21T11:42:46;20.80;71.20
75621;DHT22;64574;48.506;-2.750;2023-08-21T11:45:20;20.80;71.10
75621;DHT22;64574;48.506;-2.750;2023-08-21T11:47:46;20.80;71.30
75621;DHT22;64574;48.506;-2.750;2023-08-21T11:50:12;20.80;71.10
75621;DHT22;64574;48.506;-2.750;2023-08-21T11:52:40;20.70;71.20
75621;DHT22;64574;48.506;-2.750;2023-08-21T11:55:10;20.70;71.50
75621;DHT22;64574;48.506;-2.750;2023-08-21T11:57:48;20.80;71.10
75621;DHT22;64574;48.506;-2.750;2023-08-21T12:00:14;20.80;71.10
75621;DHT22;64574;48.506;-2.750;2023-08-21T12:02:53;20.80;70.90
75621;DHT22;64574;48.506;-2.750;2023-08-21T12:05:18;20.80;71.00
75621;DHT22;64574;48.506;-2.750;2023-08-21T12:07:45;20.90;71.10
75621;DHT22;64574;48.506;-2.750;2023-08-21T12:10:10;20.90;71.10
75621;DHT22;64574;48.506;-2.750;2023-08-21T12:12:36;20.80;71.00
75621;DHT22;64574;48.506;-2.750;2023-08-21T12:15:02;20.80;71.00
75621;DHT22;64574;48.506;-2.750;2023-08-21T12:17:27;20.80;70.80
75621;DHT22;64574;48.506;-2.750;2023-08-21T12:19:53;20.80;71.20
75621;DHT22;64574;48.506;-2.750;2023-08-21T12:22:19;20.80;71.00
75621;DHT22;64574;48.506;-2.750;2023-08-21T12:24:45;20.80;71.00
75621;DHT22;64574;48.506;-2.750;2023-08-21T12:27:10;20.80;71.10
75621;DHT22;64574;48.506;-2.750;2023-08-21T12:29:36;20.80;71.30
75621;DHT22;64574;48.506;-2.750;2023-08-21T12:32:02;20.90;71.10
75621;DHT22;64574;48.506;-2.750;2023-08-21T12:34:28;20.90;71.00
75621;DHT22;64574;48.506;-2.750;2023-08-21T12:36:54;21.00;71.30
75621;DHT22;64574;48.506;-2.750;2023-08-21T12:39:19;20.90;71.70
75621;DHT22;64574;48.506;-2.750;2023-08-21T12:41:45;20.90;71.50
75621;DHT22;64574;48.506;-2.750;2023-08-21T12:44:11;21.00;71.60
75621;DHT22;64574;48.506;-2.750;2023-08-21T12:46:37;20.90;71.80
75621;DHT22;64574;48.506;-2.750;2023-08-21T12:49:03;21.00;71.90
75621;DHT22;64574;48.506;-2.750;2023-08-21T12:51:29;21.00;71.60
75621;DHT22;64574;48.506;-2.750;2023-08-21T12:53:55;21.00;72.00
75621;DHT22;64574;48.506;-2.750;2023-08-21T12:56:21;21.10;72.20
75621;DHT22;64574;48.506;-2.750;2023-08-21T12:58:47;21.10;71.90
75621;DHT22;64574;48.506;-2.750;2023-08-21T13:01:14;21.10;71.70
75621;DHT22;64574;48.506;-2.750;2023-08-21T13:03:43;21.10;71.80
75621;DHT22;64574;48.506;-2.750;2023-08-21T13:06:09;21.00;71.80
75621;DHT22;64574;48.506;-2.750;2023-08-21T13:08:34;21.00;72.00
75621;DHT22;64574;48.506;-2.750;2023-08-21T13:11:00;21.10;71.80
75621;DHT22;64574;48.506;-2.750;2023-08-21T13:13:25;21.10;71.70
75621;DHT22;64574;48.506;-2.750;2023-08-21T13:15:51;21.00;72.00
75621;DHT22;64574;48.506;-2.750;2023-08-21T13:18:19;21.10;72.10
75621;DHT22;64574;48.506;-2.750;2023-08-21T13:20:45;21.10;72.00
75621;DHT22;64574;48.506;-2.750;2023-08-21T13:23:11;21.10;72.10
75621;DHT22;64574;48.506;-2.750;2023-08-21T13:25:36;21.10;72.10
75621;DHT22;64574;48.506;-2.750;2023-08-21T13:28:02;21.10;72.40
75621;DHT22;64574;48.506;-2.750;2023-08-21T13:30:29;21.10;72.30
75621;DHT22;64574;48.506;-2.750;2023-08-21T13:32:54;21.10;72.30
75621;DHT22;64574;48.506;-2.750;2023-08-21T13:35:20;21.10;72.30
75621;DHT22;64574;48.506;-2.750;2023-08-21T13:37:48;21.10;72.30
75621;DHT22;64574;48.506;-2.750;2023-08-21T13:40:13;21.10;72.50
75621;DHT22;64574;48.506;-2.750;2023-08-21T13:42:42;21.20;72.50
75621;DHT22;64574;48.506;-2.750;2023-08-21T13:45:10;21.10;72.10
75621;DHT22;64574;48.506;-2.750;2023-08-21T13:47:38;21.10;72.00
75621;DHT22;64574;48.506;-2.750;2023-08-21T13:50:04;21.10;72.30
75621;DHT22;64574;48.506;-2.750;2023-08-21T13:52:30;21.10;72.00
75621;DHT22;64574;48.506;-2.750;2023-08-21T13:54:56;21.20;71.70
75621;DHT22;64574;48.506;-2.750;2023-08-21T13:57:22;21.20;71.80
75621;DHT22;64574;48.506;-2.750;2023-08-21T13:59:47;21.10;71.70
75621;DHT22;64574;48.506;-2.750;2023-08-21T14:02:13;21.20;71.80
75621;DHT22;64574;48.506;-2.750;2023-08-21T14:04:38;21.10;71.70
75621;DHT22;64574;48.506;-2.750;2023-08-21T14:07:04;21.30;71.90
75621;DHT22;64574;48.506;-2.750;2023-08-21T14:09:30;21.40;71.40
75621;DHT22;64574;48.506;-2.750;2023-08-21T14:11:55;21.50;71.30
75621;DHT22;64574;48.506;-2.750;2023-08-21T14:14:21;21.50;70.90
75621;DHT22;64574;48.506;-2.750;2023-08-21T14:16:46;21.50;70.90
75621;DHT22;64574;48.506;-2.750;2023-08-21T14:19:12;21.50;70.90
75621;DHT22;64574;48.506;-2.750;2023-08-21T14:21:37;21.50;70.80
75621;DHT22;64574;48.506;-2.750;2023-08-21T14:24:03;21.50;71.00
75621;DHT22;64574;48.506;-2.750;2023-08-21T14:26:29;21.50;70.90
75621;DHT22;64574;48.506;-2.750;2023-08-21T14:28:54;21.50;71.10
75621;DHT22;64574;48.506;-2.750;2023-08-21T14:31:20;21.40;71.20
75621;DHT22;64574;48.506;-2.750;2023-08-21T14:33:46;21.40;71.00
75621;DHT22;64574;48.506;-2.750;2023-08-21T14:36:11;21.50;71.20
75621;DHT22;64574;48.506;-2.750;2023-08-21T14:38:37;21.60;71.20
75621;DHT22;64574;48.506;-2.750;2023-08-21T14:41:03;21.70;70.50
75621;DHT22;64574;48.506;-2.750;2023-08-21T14:43:28;21.60;70.50
75621;DHT22;64574;48.506;-2.750;2023-08-21T14:45:57;21.50;71.00
75621;DHT22;64574;48.506;-2.750;2023-08-21T14:48:23;21.50;71.10
75621;DHT22;64574;48.506;-2.750;2023-08-21T14:50:49;21.50;71.50
75621;DHT22;64574;48.506;-2.750;2023-08-21T14:53:14;21.50;71.60
75621;DHT22;64574;48.506;-2.750;2023-08-21T14:55:40;21.60;71.00
75621;DHT22;64574;48.506;-2.750;2023-08-21T14:58:05;21.70;70.80
75621;DHT22;64574;48.506;-2.750;2023-08-21T15:00:32;21.70;70.50
75621;DHT22;64574;48.506;-2.750;2023-08-21T15:02:58;21.70;70.50
75621;DHT22;64574;48.506;-2.750;2023-08-21T15:05:26;21.80;70.50
75621;DHT22;64574;48.506;-2.750;2023-08-21T15:07:51;21.80;70.60
75621;DHT22;64574;48.506;-2.750;2023-08-21T15:10:19;21.90;70.40
75621;DHT22;64574;48.506;-2.750;2023-08-21T15:12:44;21.70;70.70
75621;DHT22;64574;48.506;-2.750;2023-08-21T15:15:10;21.70;70.50